This is the latest recevied weather packets stored in our database for station/object IZ5MJO-13. If no packets are shown the sender has not sent any weather packets the latest 10 day(s).
| Time | Temp. | Humidity | Pressure | Rain* | Wind** | Luminosity | Snow |
|---|---|---|---|---|---|---|---|
| 1778009889 | 13.89° C | 83% | 1003.2 hPa | - | - | - | - |
| 1778009875 | 13.89° C | 83% | 1003 hPa | - | - | - | - |
| 1778009850 | 13.89° C | 80% | 1002.9 hPa | - | - | - | - |
| 1778009831 | 14.44° C | 82% | 1002.8 hPa | - | - | - | - |
| 1778009789 | 15° C | 84% | 1003 hPa | - | - | - | - |
| 1778009785 | 14.44° C | 77% | 1002.9 hPa | - | - | - | - |
| 1778009708 | 15° C | 84% | 1003 hPa | - | - | - | - |
| 1778009484 | 15° C | 82% | 1003 hPa | - | - | - | - |
| 1778009336 | 13.89° C | 80% | 1003.4 hPa | - | - | - | - |
| 1778009274 | 15° C | 82% | 1002.9 hPa | - | - | - | - |
| 1778009205 | 15° C | 80% | 1003 hPa | - | - | - | - |
| 1778009197 | 15.56° C | 77% | 1002.8 hPa | - | - | - | - |
| 1778009038 | 13.89° C | 76% | 1002.7 hPa | - | - | - | - |
| 1778008646 | 12.78° C | 77% | 1003.1 hPa | - | - | - | - |
| 1778008435 | 13.33° C | 80% | 1003.3 hPa | - | - | - | - |
| 1778007805 | 14.44° C | 72% | 1002.8 hPa | - | - | - | - |
| 1778007535 | 13.33° C | 82% | 1003.3 hPa | - | - | - | - |
| 1778007148 | 15.56° C | 69% | 1002.8 hPa | - | - | - | - |
| 1778006635 | 13.33° C | 83% | 1003.1 hPa | - | - | - | - |
| 1778006370 | 16.11° C | 77% | 1002.8 hPa | - | - | - | - |
| 1778005974 | 17.22° C | 70% | 1002.8 hPa | - | - | - | - |
| 1778005735 | 13.89° C | 83% | 1003.2 hPa | - | - | - | - |
| 1778004834 | 13.89° C | 83% | 1003 hPa | - | - | - | - |
| 1778003934 | 13.89° C | 80% | 1002.9 hPa | - | - | - | - |
| 1778003034 | 14.44° C | 82% | 1002.8 hPa | - | - | - | - |
* Rain since midnight (hover to see other rain measurements)
** Current wind speed in m/s (hover to see current wind gust speed)